• Join FlightAware (Why Join?)
  • Login
  • US Flag 
08:39AM EDT


 

Airport Tracker/Info


-or-


 

Live Flight TrackerFlight Track Log ✈ ASQ6115 ✈ 16-Jun-2013 ✈ KMFE - KIAH

Flight Track Log - Related Links

Times and Time Zones

All times are in EDT time to prevent confusion due to time zone crossing. See the ASQ6115 flight status page for this flight to view local times or setup timezone preferences in your user account.

Time Position Orientation Groundspeed Altitude Reporting Facility
EDT Latitude Longitude Course Direction KTS MPH feet Rate Location/Type
09:55AM 26.1494 -98.2114 130° Southeast 165 190 1,700  Level Houston Center
09:55AM 26.1647 -98.1756 65° Northeast 205 236 2,900 1,440 Climbing Houston Center
09:55AM 26.1844 -98.1650 26° Northeast 253 291 3,000 1,920 Climbing Houston Center
09:56AM 26.2425 -98.1414 20° North 278 320 4,900 2,400 Climbing Houston Center
09:56AM 26.2592 -98.1344 20° North 301 346 5,500 2,640 Climbing Houston Center
09:57AM 26.3661 -98.1369 20° North  Level FlightAware Approximate
09:57AM 26.3167 -98.1100 21° North 285 328 7,600  Level Houston Center
09:58AM 26.4339 -98.1081 24° Northeast  Level FlightAware Approximate
09:58AM 26.3911 -98.0797 20° North 283 326 9,600  Level Houston Center
09:59AM 26.5000 -98.0750 24° Northeast  Level FlightAware Approximate
09:59AM 26.4700 -98.0472 20° North 298 343 10,800  Level Houston Center
10:00AM 26.5675 -98.0067 20° North 339 390 11,700 1,020 Climbing Houston Center
10:01AM 26.6628 -97.9669 20° North 359 413 13,000 1,200 Climbing Houston Center
10:02AM 26.7572 -97.9272 21° North 361 415 14,200 1,200 Climbing Houston Center
10:03AM 26.8614 -97.8842 20° North 368 423 15,500 1,200 Climbing Houston Center
10:04AM 26.9592 -97.8433 20° North 372 428 16,700 1,140 Climbing Houston Center
10:05AM 27.0575 -97.8025 20° North 374 430 17,900 1,140 Climbing Houston Center
10:06AM 27.1544 -97.7492 26° Northeast 377 434 19,100 1,140 Climbing Houston Center
10:07AM 27.2436 -97.6903 30° Northeast 375 432 20,300 1,140 Climbing Houston Center
10:08AM 27.3353 -97.6311 30° Northeast 377 434 21,500 1,140 Climbing Houston Center
10:10AM 27.4283 -97.5714 30° Northeast 384 442 22,700 1,140 Climbing Houston Center
10:11AM 27.5192 -97.5122 30° Northeast 380 437 23,900 1,140 Climbing Houston Center
10:12AM 27.6111 -97.4531 30° Northeast 380 437 25,100 1,080 Climbing Houston Center
10:13AM 27.7017 -97.3936 30° Northeast 378 435 26,200 900 Climbing Houston Center
10:14AM 27.8100 -97.3222 30° Northeast 376 433 27,000 360 Climbing Houston Center
10:15AM 27.9078 -97.2583 30° Northeast 395 455 27,000  Level Houston Center
10:16AM 28.0144 -97.1892 30° Northeast 422 486 27,000  Level Houston Center
10:17AM 28.1206 -97.1183 30° Northeast 439 505 27,000  Level Houston Center
10:18AM 28.2292 -97.0478 30° Northeast 449 517 27,000  Level Houston Center
10:19AM 28.3375 -96.9775 30° Northeast 449 517 27,000  Level Houston Center
10:20AM 28.4467 -96.9033 31° Northeast 456 525 27,000  Level Houston Center
10:21AM 28.5564 -96.8306 30° Northeast 458 527 27,000  Level Houston Center
10:22AM 28.6661 -96.7583 30° Northeast 458 527 27,000 -60 Level Houston Center
10:23AM 28.7983 -96.6700 30° Northeast 459 528 26,900 -960 Descending Houston Center
10:24AM 28.9111 -96.5953 30° Northeast 470 541 25,100 -1,860 Descending Houston Center
10:25AM 29.0192 -96.5239 30° Northeast 454 522 23,100 -2,160 Descending Houston Center
10:26AM 29.1217 -96.4542 31° Northeast 438 504 20,700 -2,520 Descending Houston Center
10:26AM 29.1628 -96.4269 30° Northeast 431 496 19,800 -2,280 Descending Houston Center
10:27AM 29.2242 -96.3844 31° Northeast 434 499 18,400 -2,160 Descending Houston Center
10:28AM 29.3256 -96.3178 30° Northeast 426 490 16,100 -2,520 Descending Houston Center
10:29AM 29.4067 -96.2614 31° Northeast 396 456 14,100 -2,760 Descending Houston Center
10:29AM 29.4375 -96.2403 31° Northeast 398 458 13,300 -2,160 Descending Houston Center
10:30AM 29.4922 -96.2039 30° Northeast 386 444 12,100 -1,380 Descending Houston Center
10:30AM 29.5286 -96.1792 31° Northeast 385 443 11,900 -120 Descending Houston Center
10:31AM 29.5650 -96.1236 53° Northeast 370 426 12,000 -240 Climbing Houston Center
10:31AM 29.5883 -96.0822 57° Northeast 381 438 11,700 -1,260 Descending Houston Center
10:32AM 29.6281 -96.0036 60° Northeast 382 440 10,600 -1,380 Descending Houston Center
10:32AM 29.6375 -95.9847 60° Northeast 376 433 10,300 -660 Descending Houston Center
10:33AM 29.6744 -95.9094 61° Northeast 361 415 10,000 -300 Descending Houston Center
10:33AM 29.6878 -95.8844 58° Northeast 363 418 10,000  Level Houston Center
10:34AM 29.7300 -95.8019 59° Northeast 349 402 10,000  Level Houston Center
10:34AM 29.7467 -95.7694 59° Northeast 350 403 10,000 -600 Level Houston Center
10:35AM 29.7689 -95.7206 62° Northeast 288 331 9,500 -1,260 Descending Houston Center
10:35AM 29.7872 -95.6889 56° Northeast 297 342 8,700 -1,980 Descending Houston Center
10:36AM 29.8100 -95.6386 62° Northeast 293 337 7,500 -1,560 Descending Houston Center
10:36AM 29.8269 -95.6069 58° Northeast 291 335 7,100 -1,020 Descending Houston Center
10:37AM 29.8492 -95.5619 60° Northeast 272 313 6,500 -1,080 Descending Houston Center
10:37AM 29.8653 -95.5294 60° Northeast 282 325 6,000 -540 Descending Houston Center
10:38AM 29.8903 -95.4800 60° Northeast 281 323 6,000  Level Houston Center
10:38AM 29.8958 -95.4492 78° East 278 320 6,000  Level Houston Center
10:39AM 29.8958 -95.4044 90° East 235 270 6,000  Level Houston Center
10:39AM 29.8961 -95.3731 89° East 240 276 6,000  Level Houston Center
10:40AM 29.8953 -95.3300 91° East 238 274 6,000  Level Houston Center
10:40AM 29.8964 -95.2958 88° East 239 275 6,000  Level Houston Center
10:41AM 29.8969 -95.2550 89° East 242 278 6,000  Level Houston Center
10:41AM 29.8961 -95.2189 92° East 240 276 6,000 -600 Level Houston Center
10:42AM 29.8958 -95.1756 90° East 228 262 5,400 -1,620 Descending Houston Center
10:42AM 29.8969 -95.1289 88° East 234 269 4,400 -1,560 Descending Houston Center
10:43AM 29.8953 -95.1008 94° East 236 272 3,800 -1,380 Descending Houston Center
10:43AM 29.8981 -95.0522 86° East 236 272 3,000 -1,200 Descending Houston Center
10:44AM 29.9161 -95.0333 42° Northeast 240 276 2,600 -1,020 Descending Houston Center
10:44AM 29.9547 -95.0350 358° North 234 269 2,000 -600 Descending Houston Center
10:45AM 29.9669 -95.0608 299° West 234 269 2,000  Level Houston Center